createdAt,value
2018-12-29T00:00:07.342Z,19.78
2018-12-29T00:00:32.921Z,19.75
2018-12-29T00:00:58.543Z,19.76
2018-12-29T00:01:24.155Z,19.88
2018-12-29T00:01:49.727Z,19.75
2018-12-29T00:02:15.294Z,19.8
2018-12-29T00:02:40.897Z,19.83
2018-12-29T00:03:06.486Z,19.78
2018-12-29T00:03:32.061Z,19.75
2018-12-29T00:03:57.631Z,19.76
2018-12-29T00:04:23.208Z,19.79
2018-12-29T00:04:48.777Z,19.76
2018-12-29T00:05:14.353Z,19.75
2018-12-29T00:05:39.949Z,19.73
2018-12-29T00:06:05.527Z,19.79
2018-12-29T00:06:31.094Z,19.79
2018-12-29T00:06:56.671Z,19.73
2018-12-29T00:07:22.245Z,19.79
2018-12-29T00:07:47.823Z,19.84
2018-12-29T00:08:13.393Z,19.76
2018-12-29T00:08:38.973Z,19.73
2018-12-29T00:09:04.569Z,19.69
2018-12-29T00:09:30.160Z,19.76
2018-12-29T00:09:55.786Z,19.78
2018-12-29T00:10:21.361Z,19.8
2018-12-29T00:10:46.937Z,19.7
2018-12-29T00:11:12.513Z,19.73
2018-12-29T00:11:38.096Z,19.78
2018-12-29T00:12:03.684Z,19.72
2018-12-29T00:12:29.259Z,19.79
2018-12-29T00:12:54.833Z,19.76
2018-12-29T00:13:20.422Z,19.78
2018-12-29T00:13:45.999Z,19.75
2018-12-29T00:14:11.571Z,19.79
2018-12-29T00:14:37.141Z,19.7
2018-12-29T00:15:02.710Z,19.65
2018-12-29T00:15:28.286Z,19.78
2018-12-29T00:15:53.862Z,19.8
2018-12-29T00:16:19.446Z,19.83
2018-12-29T00:16:45.046Z,19.73
2018-12-29T00:17:10.633Z,19.83
2018-12-29T00:17:36.199Z,19.73
2018-12-29T00:18:01.792Z,19.79
2018-12-29T00:18:27.353Z,19.8
2018-12-29T00:18:52.942Z,19.78
2018-12-29T00:19:18.523Z,19.78
2018-12-29T00:19:44.102Z,19.8
2018-12-29T00:20:09.713Z,19.75
2018-12-29T00:20:35.275Z,19.79
2018-12-29T00:21:00.865Z,19.78
2018-12-29T00:21:26.474Z,19.76
2018-12-29T00:21:52.038Z,19.8
2018-12-29T00:22:17.619Z,19.78
2018-12-29T00:22:43.201Z,19.73
2018-12-29T00:23:08.768Z,19.79
2018-12-29T00:23:34.339Z,19.79
2018-12-29T00:23:59.933Z,19.78
2018-12-29T00:24:25.521Z,19.73
2018-12-29T00:24:51.131Z,19.79
2018-12-29T00:25:16.724Z,19.73
2018-12-29T00:25:42.293Z,19.8
2018-12-29T00:26:07.873Z,19.8
2018-12-29T00:26:33.474Z,19.73
2018-12-29T00:26:59.017Z,19.72
2018-12-29T00:27:24.611Z,19.76
2018-12-29T00:27:50.186Z,19.76
2018-12-29T00:28:15.795Z,19.79
2018-12-29T00:28:41.377Z,19.79
2018-12-29T00:29:06.949Z,19.78
2018-12-29T00:29:32.529Z,19.72
2018-12-29T00:29:58.101Z,19.72
2018-12-29T00:30:23.671Z,19.78
2018-12-29T00:30:49.242Z,19.8
2018-12-29T00:31:14.795Z,19.7
2018-12-29T00:31:40.381Z,19.78
2018-12-29T00:32:05.949Z,19.68
2018-12-29T00:32:31.533Z,19.69
2018-12-29T00:32:57.117Z,19.76
2018-12-29T00:33:22.685Z,19.79
2018-12-29T00:33:48.251Z,19.79
2018-12-29T00:34:13.835Z,19.65
2018-12-29T00:34:39.396Z,19.73
2018-12-29T00:35:04.960Z,19.72
2018-12-29T00:35:30.521Z,19.78
2018-12-29T00:35:56.119Z,19.78
2018-12-29T00:36:21.689Z,19.75
2018-12-29T00:36:47.289Z,19.72
2018-12-29T00:37:12.873Z,19.65
2018-12-29T00:37:38.425Z,19.79
2018-12-29T00:38:03.986Z,19.65
2018-12-29T00:38:29.548Z,19.75
2018-12-29T00:38:55.116Z,19.66
2018-12-29T00:39:20.707Z,19.78
2018-12-29T00:39:46.272Z,19.76
2018-12-29T00:40:11.838Z,19.72
2018-12-29T00:40:37.422Z,19.78
2018-12-29T00:41:02.983Z,19.68
2018-12-29T00:41:28.556Z,19.78
2018-12-29T00:41:54.123Z,19.79
2018-12-29T00:42:19.735Z,19.61
2018-12-29T00:42:45.311Z,19.68
2018-12-29T00:43:10.897Z,19.76
2018-12-29T00:43:36.485Z,19.69
2018-12-29T00:44:02.057Z,19.73
2018-12-29T00:44:27.627Z,19.66
2018-12-29T00:44:53.199Z,19.63
2018-12-29T00:45:18.803Z,19.78
2018-12-29T00:45:45.486Z,19.69
2018-12-29T00:46:09.954Z,19.68
2018-12-29T00:46:35.530Z,19.69
2018-12-29T00:47:01.104Z,19.68
2018-12-29T00:47:26.678Z,19.68
2018-12-29T00:47:52.246Z,19.76
2018-12-29T00:48:17.816Z,19.68
2018-12-29T00:48:43.415Z,19.65
2018-12-29T00:49:09.002Z,19.8
2018-12-29T00:49:34.584Z,19.79
2018-12-29T00:50:00.167Z,19.68
2018-12-29T00:50:25.737Z,19.68
2018-12-29T00:50:51.313Z,19.76
2018-12-29T00:51:16.909Z,19.73
2018-12-29T00:51:42.491Z,19.65
2018-12-29T00:52:08.064Z,19.7
2018-12-29T00:52:33.663Z,19.69
2018-12-29T00:52:59.238Z,19.72
2018-12-29T00:53:24.816Z,19.76
2018-12-29T00:53:50.396Z,19.69
2018-12-29T00:54:15.973Z,19.83
2018-12-29T00:54:41.549Z,19.73
2018-12-29T00:55:07.117Z,19.7
2018-12-29T00:55:32.687Z,19.68
2018-12-29T00:55:58.260Z,19.7
2018-12-29T00:56:23.844Z,19.75
2018-12-29T00:56:49.427Z,19.69
2018-12-29T00:57:14.991Z,19.68
2018-12-29T00:57:40.587Z,19.68
2018-12-29T00:58:06.160Z,19.66
2018-12-29T00:58:31.735Z,19.7
2018-12-29T00:58:57.318Z,19.68
2018-12-29T00:59:22.895Z,19.7
2018-12-29T00:59:48.499Z,19.68
2018-12-29T01:00:14.066Z,19.7
2018-12-29T01:00:39.647Z,19.66
2018-12-29T01:01:05.223Z,19.68
2018-12-29T01:01:30.805Z,19.69
2018-12-29T01:01:56.398Z,19.7
2018-12-29T01:02:21.977Z,19.7
2018-12-29T01:02:47.558Z,19.66
2018-12-29T01:03:13.146Z,19.72
2018-12-29T01:03:38.715Z,19.66
2018-12-29T01:04:04.317Z,19.66
2018-12-29T01:04:29.904Z,19.73
2018-12-29T01:04:55.471Z,19.7
2018-12-29T01:05:21.059Z,19.66
2018-12-29T01:05:46.629Z,19.68
2018-12-29T01:06:12.213Z,19.69
2018-12-29T01:06:37.797Z,19.68
2018-12-29T01:07:03.371Z,19.68
2018-12-29T01:07:28.959Z,19.72
2018-12-29T01:07:54.534Z,19.63
2018-12-29T01:08:20.095Z,19.69
2018-12-29T01:08:45.690Z,19.68
2018-12-29T01:09:11.265Z,19.65
2018-12-29T01:09:36.843Z,19.69
2018-12-29T01:10:02.425Z,19.63
2018-12-29T01:10:28.005Z,19.68
2018-12-29T01:10:53.569Z,19.66
2018-12-29T01:11:19.151Z,19.66
2018-12-29T01:11:44.714Z,19.66
2018-12-29T01:12:10.299Z,19.66
2018-12-29T01:12:35.861Z,19.66
2018-12-29T01:13:01.449Z,19.79
2018-12-29T01:13:27.019Z,19.63
2018-12-29T01:13:52.598Z,19.68
2018-12-29T01:14:18.163Z,19.66
2018-12-29T01:14:43.739Z,19.69
2018-12-29T01:15:10.005Z,19.7
2018-12-29T01:15:34.893Z,19.69
2018-12-29T01:16:00.465Z,19.66
2018-12-29T01:16:26.053Z,19.72
2018-12-29T01:16:51.616Z,19.7
2018-12-29T01:17:17.197Z,19.66
2018-12-29T01:17:42.779Z,19.69
2018-12-29T01:18:08.363Z,19.66
2018-12-29T01:18:33.947Z,19.7
2018-12-29T01:18:59.511Z,19.68
2018-12-29T01:19:25.067Z,19.7
2018-12-29T01:19:50.671Z,19.69
2018-12-29T01:20:16.255Z,19.66
2018-12-29T01:20:41.843Z,19.65
2018-12-29T01:21:07.426Z,19.65
2018-12-29T01:21:33.034Z,19.63
2018-12-29T01:21:58.602Z,19.6
2018-12-29T01:22:24.170Z,19.7
2018-12-29T01:22:49.759Z,19.68
2018-12-29T01:23:15.352Z,19.66
2018-12-29T01:23:40.933Z,19.66
2018-12-29T01:24:06.517Z,19.66
2018-12-29T01:24:32.083Z,19.68
2018-12-29T01:24:57.667Z,19.69
2018-12-29T01:25:23.260Z,19.66
2018-12-29T01:25:48.825Z,19.68
2018-12-29T01:26:14.396Z,19.65
2018-12-29T01:26:39.974Z,19.7
2018-12-29T01:27:05.543Z,19.66
2018-12-29T01:27:31.131Z,19.66
2018-12-29T01:27:56.709Z,19.66
2018-12-29T01:28:22.286Z,19.69
2018-12-29T01:28:47.873Z,19.7
2018-12-29T01:29:13.453Z,19.69
2018-12-29T01:29:39.029Z,19.7
2018-12-29T01:30:04.605Z,19.66
2018-12-29T01:30:30.189Z,19.73
2018-12-29T01:30:55.745Z,19.7
2018-12-29T01:31:21.342Z,19.73
2018-12-29T01:31:46.919Z,19.69
2018-12-29T01:32:12.509Z,19.69
2018-12-29T01:32:38.095Z,19.66
2018-12-29T01:33:03.670Z,19.78
2018-12-29T01:33:29.275Z,19.7
2018-12-29T01:33:54.831Z,19.66
2018-12-29T01:34:20.407Z,19.61
2018-12-29T01:34:45.981Z,19.66
2018-12-29T01:35:11.563Z,19.72
2018-12-29T01:35:37.147Z,19.69
2018-12-29T01:36:02.717Z,19.66
2018-12-29T01:36:28.292Z,19.65
2018-12-29T01:36:53.876Z,19.65
2018-12-29T01:37:19.455Z,19.66
2018-12-29T01:37:45.055Z,19.69
2018-12-29T01:38:10.602Z,19.69
2018-12-29T01:38:36.203Z,19.61
2018-12-29T01:39:01.777Z,19.68
2018-12-29T01:39:27.353Z,19.69
2018-12-29T01:39:52.932Z,19.73
2018-12-29T01:40:18.531Z,19.7
2018-12-29T01:40:44.163Z,19.66
2018-12-29T01:41:09.669Z,19.65
2018-12-29T01:41:35.273Z,19.68
2018-12-29T01:42:00.882Z,19.7
2018-12-29T01:42:26.463Z,19.69
2018-12-29T01:42:52.049Z,19.65
2018-12-29T01:43:17.647Z,19.7
2018-12-29T01:43:43.205Z,19.66
2018-12-29T01:44:08.803Z,19.66
2018-12-29T01:44:34.383Z,19.7
2018-12-29T01:44:59.966Z,19.66
2018-12-29T01:45:25.539Z,19.69
2018-12-29T01:45:51.119Z,19.68
2018-12-29T01:46:16.777Z,19.66
2018-12-29T01:46:42.275Z,19.69
2018-12-29T01:47:07.855Z,19.69
2018-12-29T01:47:33.437Z,19.65
2018-12-29T01:47:59.013Z,19.69
2018-12-29T01:48:24.583Z,19.66
2018-12-29T01:48:50.158Z,19.63
2018-12-29T01:49:15.736Z,19.66
2018-12-29T01:49:41.326Z,19.66
2018-12-29T01:50:06.901Z,19.72
2018-12-29T01:50:32.482Z,19.68
2018-12-29T01:50:58.051Z,19.66
2018-12-29T01:51:23.629Z,19.66
2018-12-29T01:51:49.199Z,19.66
2018-12-29T01:52:14.784Z,19.73
2018-12-29T01:52:40.362Z,19.68
2018-12-29T01:53:05.933Z,19.65
2018-12-29T01:53:31.505Z,19.66
2018-12-29T01:53:57.072Z,19.65
2018-12-29T01:54:22.650Z,19.69
2018-12-29T01:54:48.290Z,19.65
2018-12-29T01:55:13.805Z,19.68
2018-12-29T01:55:39.377Z,19.7
2018-12-29T01:56:04.956Z,19.7
2018-12-29T01:56:30.544Z,19.68
2018-12-29T01:56:56.113Z,19.65
2018-12-29T01:57:21.687Z,19.66
2018-12-29T01:57:47.261Z,19.68
2018-12-29T01:58:12.844Z,19.72
2018-12-29T01:58:38.414Z,19.65
2018-12-29T01:59:03.979Z,19.68
2018-12-29T01:59:29.547Z,19.68
2018-12-29T01:59:55.125Z,19.73
2018-12-29T02:00:20.715Z,19.66
2018-12-29T02:00:46.299Z,19.72
2018-12-29T02:01:11.883Z,19.68
2018-12-29T02:01:37.467Z,19.69
2018-12-29T02:02:03.045Z,19.72
2018-12-29T02:02:28.615Z,19.66
2018-12-29T02:02:54.186Z,19.68
2018-12-29T02:03:19.749Z,19.72
2018-12-29T02:03:45.327Z,19.72
2018-12-29T02:04:10.914Z,19.72
2018-12-29T02:04:36.485Z,19.68
2018-12-29T02:05:02.083Z,19.68
2018-12-29T02:05:27.651Z,19.78
2018-12-29T02:05:53.217Z,19.66
2018-12-29T02:06:18.783Z,19.78
2018-12-29T02:06:44.357Z,19.65
2018-12-29T02:07:09.924Z,19.73
2018-12-29T02:07:35.508Z,19.61
2018-12-29T02:08:01.103Z,19.68
2018-12-29T02:08:26.680Z,19.66
2018-12-29T02:08:52.251Z,19.73
2018-12-29T02:09:17.823Z,19.68
2018-12-29T02:09:43.397Z,19.63
2018-12-29T02:10:08.975Z,19.72
2018-12-29T02:10:34.564Z,19.73
2018-12-29T02:11:00.131Z,19.75
2018-12-29T02:11:25.719Z,19.65
2018-12-29T02:11:51.300Z,19.68
2018-12-29T02:12:16.873Z,19.65
2018-12-29T02:12:42.448Z,19.68
2018-12-29T02:13:08.022Z,19.72
2018-12-29T02:13:33.604Z,19.69
2018-12-29T02:13:59.188Z,19.72
2018-12-29T02:14:24.761Z,19.66
2018-12-29T02:14:50.333Z,19.65
2018-12-29T02:15:15.917Z,19.75
2018-12-29T02:15:41.499Z,19.65
2018-12-29T02:16:07.073Z,19.73
2018-12-29T02:16:32.645Z,19.76
2018-12-29T02:16:58.224Z,19.68
2018-12-29T02:17:23.808Z,19.7
2018-12-29T02:17:49.385Z,19.73
2018-12-29T02:18:14.972Z,19.66
2018-12-29T02:18:40.610Z,19.73
2018-12-29T02:19:06.181Z,19.73
2018-12-29T02:19:31.761Z,19.69
2018-12-29T02:19:57.337Z,19.66
2018-12-29T02:20:22.904Z,19.7
2018-12-29T02:20:48.471Z,19.68
2018-12-29T02:21:14.034Z,19.63
2018-12-29T02:21:39.623Z,19.66
2018-12-29T02:22:05.190Z,19.68
2018-12-29T02:22:30.743Z,19.73
2018-12-29T02:22:56.343Z,19.72
2018-12-29T02:23:21.939Z,19.66
2018-12-29T02:23:47.534Z,19.6
2018-12-29T02:24:13.105Z,19.73
2018-12-29T02:24:38.679Z,19.65
2018-12-29T02:25:04.258Z,19.61
2018-12-29T02:25:29.829Z,19.61
2018-12-29T02:25:55.400Z,19.73
2018-12-29T02:26:20.994Z,19.55
2018-12-29T02:26:46.570Z,19.65
2018-12-29T02:27:12.160Z,19.65
2018-12-29T02:27:37.743Z,19.66
2018-12-29T02:28:03.321Z,19.66
2018-12-29T02:28:28.883Z,19.68
2018-12-29T02:28:54.463Z,19.7
2018-12-29T02:29:20.043Z,19.65
2018-12-29T02:29:45.610Z,19.66
2018-12-29T02:30:11.185Z,19.55
2018-12-29T02:30:36.753Z,19.72
2018-12-29T02:31:02.324Z,19.7
2018-12-29T02:31:27.907Z,19.68
2018-12-29T02:31:53.473Z,19.63
2018-12-29T02:32:19.164Z,19.61
2018-12-29T02:32:44.639Z,19.66
2018-12-29T02:33:10.210Z,19.66
2018-12-29T02:33:35.773Z,19.65
2018-12-29T02:34:01.359Z,19.57
2018-12-29T02:34:26.943Z,19.63
2018-12-29T02:34:52.506Z,19.7
2018-12-29T02:35:18.067Z,19.68
2018-12-29T02:35:43.655Z,19.61
2018-12-29T02:36:09.223Z,19.75
2018-12-29T02:36:34.793Z,19.68
2018-12-29T02:37:00.367Z,19.68
2018-12-29T02:37:25.937Z,19.68
2018-12-29T02:37:51.488Z,19.65
2018-12-29T02:38:17.061Z,19.57
2018-12-29T02:38:42.637Z,19.65
2018-12-29T02:39:08.219Z,19.58
2018-12-29T02:39:33.793Z,19.69
2018-12-29T02:39:59.354Z,19.68
2018-12-29T02:40:24.925Z,19.69
2018-12-29T02:40:50.514Z,19.68
2018-12-29T02:41:16.092Z,19.69
2018-12-29T02:41:41.657Z,19.68
2018-12-29T02:42:07.241Z,19.63
2018-12-29T02:42:32.813Z,19.68
2018-12-29T02:42:58.407Z,19.68
2018-12-29T02:43:23.985Z,19.6
2018-12-29T02:43:49.571Z,19.75
2018-12-29T02:44:15.145Z,19.68
2018-12-29T02:44:40.743Z,19.61
2018-12-29T02:45:06.329Z,19.66
2018-12-29T02:45:33.259Z,19.68
2018-12-29T02:45:57.495Z,19.6
2018-12-29T02:46:23.065Z,19.66
2018-12-29T02:46:48.658Z,19.68
2018-12-29T02:47:14.243Z,19.68
2018-12-29T02:47:39.807Z,19.66
2018-12-29T02:48:05.390Z,19.66
2018-12-29T02:48:30.966Z,19.69
2018-12-29T02:48:56.537Z,19.65
2018-12-29T02:49:22.104Z,19.66
2018-12-29T02:49:47.669Z,19.66
2018-12-29T02:50:13.268Z,19.63
2018-12-29T02:50:38.845Z,19.66
2018-12-29T02:51:04.424Z,19.66
2018-12-29T02:51:30.000Z,19.61
2018-12-29T02:51:55.597Z,19.65
2018-12-29T02:52:21.165Z,19.61
2018-12-29T02:52:46.747Z,19.58
2018-12-29T02:53:12.308Z,19.6
2018-12-29T02:53:37.881Z,19.65
2018-12-29T02:54:03.453Z,19.66
2018-12-29T02:54:29.025Z,19.68
2018-12-29T02:54:54.592Z,19.69
2018-12-29T02:55:20.172Z,19.68
2018-12-29T02:55:45.743Z,19.61
2018-12-29T02:56:11.315Z,19.66
2018-12-29T02:56:36.906Z,19.63
2018-12-29T02:57:02.457Z,19.68
2018-12-29T02:57:28.039Z,19.68
2018-12-29T02:57:53.615Z,19.68
2018-12-29T02:58:19.208Z,19.65
2018-12-29T02:58:44.762Z,19.66
2018-12-29T02:59:10.384Z,19.61
2018-12-29T02:59:35.963Z,19.66
2018-12-29T03:00:01.540Z,19.68
2018-12-29T03:00:27.166Z,19.61
2018-12-29T03:00:52.711Z,19.6
2018-12-29T03:01:18.291Z,19.69
2018-12-29T03:01:43.857Z,19.66
2018-12-29T03:02:09.436Z,19.68
2018-12-29T03:02:35.006Z,19.63
2018-12-29T03:03:00.576Z,19.68
2018-12-29T03:03:26.152Z,19.68
2018-12-29T03:03:51.729Z,19.61
2018-12-29T03:04:17.302Z,19.58
2018-12-29T03:04:42.876Z,19.65
2018-12-29T03:05:08.443Z,19.69
2018-12-29T03:05:34.023Z,19.58
2018-12-29T03:05:59.631Z,19.65
2018-12-29T03:06:25.205Z,19.61
2018-12-29T03:06:50.812Z,19.61
2018-12-29T03:07:16.397Z,19.65
2018-12-29T03:07:41.973Z,19.68
2018-12-29T03:08:07.550Z,19.61
2018-12-29T03:08:33.120Z,19.63
2018-12-29T03:08:58.724Z,19.65
2018-12-29T03:09:24.312Z,19.66
2018-12-29T03:09:49.887Z,19.63
2018-12-29T03:10:15.457Z,19.63
2018-12-29T03:10:41.017Z,19.61
2018-12-29T03:11:06.613Z,19.6
2018-12-29T03:11:32.194Z,19.61
2018-12-29T03:11:57.775Z,19.6
2018-12-29T03:12:23.354Z,19.58
2018-12-29T03:12:48.926Z,19.65
2018-12-29T03:13:14.541Z,19.65
2018-12-29T03:13:40.136Z,19.58
2018-12-29T03:14:05.705Z,19.68
2018-12-29T03:14:31.274Z,19.68
2018-12-29T03:14:56.840Z,19.58
2018-12-29T03:15:22.430Z,19.61
2018-12-29T03:15:47.995Z,19.66
2018-12-29T03:16:13.570Z,19.65
2018-12-29T03:16:39.144Z,19.61
2018-12-29T03:17:04.717Z,19.58
2018-12-29T03:17:30.303Z,19.69
2018-12-29T03:17:55.874Z,19.65
2018-12-29T03:18:21.472Z,19.61
2018-12-29T03:18:47.048Z,19.63
2018-12-29T03:19:12.623Z,19.65
2018-12-29T03:19:38.194Z,19.68
2018-12-29T03:20:03.761Z,19.6
2018-12-29T03:20:29.385Z,19.65
2018-12-29T03:20:54.980Z,19.63
2018-12-29T03:21:20.561Z,19.65
2018-12-29T03:21:46.137Z,19.58
2018-12-29T03:22:11.725Z,19.63
2018-12-29T03:22:37.307Z,19.6
2018-12-29T03:23:02.886Z,19.63
2018-12-29T03:23:28.450Z,19.58
2018-12-29T03:23:54.043Z,19.66
2018-12-29T03:24:19.637Z,19.6
2018-12-29T03:24:45.201Z,19.66
2018-12-29T03:25:10.782Z,19.55
2018-12-29T03:25:36.391Z,19.61
2018-12-29T03:26:01.986Z,19.6
2018-12-29T03:26:27.557Z,19.65
2018-12-29T03:26:53.122Z,19.61
2018-12-29T03:27:18.705Z,19.55
2018-12-29T03:27:44.287Z,19.63
2018-12-29T03:28:09.887Z,19.63
2018-12-29T03:28:35.473Z,19.61
2018-12-29T03:29:01.048Z,19.66
2018-12-29T03:29:26.612Z,19.66
2018-12-29T03:29:52.177Z,19.61
2018-12-29T03:30:17.753Z,19.65
2018-12-29T03:30:43.325Z,19.65
2018-12-29T03:31:08.901Z,19.63
2018-12-29T03:31:34.487Z,19.57
2018-12-29T03:32:00.064Z,19.55
2018-12-29T03:32:25.643Z,19.57
2018-12-29T03:32:51.197Z,19.66
2018-12-29T03:33:16.783Z,19.63
2018-12-29T03:33:42.350Z,19.65
2018-12-29T03:34:07.945Z,19.65
2018-12-29T03:34:33.528Z,19.57
2018-12-29T03:34:59.090Z,19.66
2018-12-29T03:35:24.669Z,19.61
2018-12-29T03:35:50.231Z,19.6
2018-12-29T03:36:15.800Z,19.57
2018-12-29T03:36:41.381Z,19.54
2018-12-29T03:37:06.943Z,19.68
2018-12-29T03:37:32.491Z,19.65
2018-12-29T03:37:58.062Z,19.53
2018-12-29T03:38:23.654Z,19.58
2018-12-29T03:38:49.233Z,19.55
2018-12-29T03:39:14.808Z,19.53
2018-12-29T03:39:40.384Z,19.58
2018-12-29T03:40:05.953Z,19.55
2018-12-29T03:40:31.526Z,19.57
2018-12-29T03:40:57.111Z,19.55
2018-12-29T03:41:22.687Z,19.65
2018-12-29T03:41:48.268Z,19.53
2018-12-29T03:42:13.842Z,19.57
2018-12-29T03:42:39.417Z,19.57
2018-12-29T03:43:04.971Z,19.5
2018-12-29T03:43:30.548Z,19.65
2018-12-29T03:43:56.122Z,19.66
2018-12-29T03:44:21.711Z,19.53
2018-12-29T03:44:47.291Z,19.6
2018-12-29T03:45:12.860Z,19.54
2018-12-29T03:45:38.438Z,19.53
2018-12-29T03:46:04.021Z,19.55
2018-12-29T03:46:29.591Z,19.54
2018-12-29T03:46:55.188Z,19.57
2018-12-29T03:47:20.767Z,19.53
2018-12-29T03:47:46.336Z,19.54
2018-12-29T03:48:11.910Z,19.54
2018-12-29T03:48:37.482Z,19.61
2018-12-29T03:49:03.045Z,19.63
2018-12-29T03:49:28.633Z,19.58
2018-12-29T03:49:54.204Z,19.48
2018-12-29T03:50:19.776Z,19.53
2018-12-29T03:50:45.354Z,19.53
2018-12-29T03:51:10.924Z,19.55
2018-12-29T03:51:36.496Z,19.58
2018-12-29T03:52:02.075Z,19.57
2018-12-29T03:52:27.640Z,19.55
2018-12-29T03:52:53.222Z,19.51
2018-12-29T03:53:18.797Z,19.6
2018-12-29T03:53:44.376Z,19.5
2018-12-29T03:54:09.953Z,19.53
2018-12-29T03:54:35.520Z,19.54
2018-12-29T03:55:01.113Z,19.54
2018-12-29T03:55:26.669Z,19.58
2018-12-29T03:55:52.246Z,19.5
2018-12-29T03:56:17.834Z,19.5
2018-12-29T03:56:43.416Z,19.51
2018-12-29T03:57:08.999Z,19.5
2018-12-29T03:57:34.566Z,19.5
2018-12-29T03:58:00.143Z,19.54
2018-12-29T03:58:25.708Z,19.58
2018-12-29T03:58:51.266Z,19.53
2018-12-29T03:59:16.861Z,19.54
2018-12-29T03:59:42.470Z,19.53
2018-12-29T04:00:08.045Z,19.51
2018-12-29T04:00:33.600Z,19.54
2018-12-29T04:00:59.170Z,19.57
2018-12-29T04:01:24.747Z,19.54
2018-12-29T04:01:50.331Z,19.61
2018-12-29T04:02:15.892Z,19.57
2018-12-29T04:02:41.465Z,19.54
2018-12-29T04:03:07.043Z,19.55
2018-12-29T04:03:32.625Z,19.51
2018-12-29T04:03:58.195Z,19.54
2018-12-29T04:04:23.762Z,19.5
2018-12-29T04:04:49.347Z,19.5
2018-12-29T04:05:14.920Z,19.51
2018-12-29T04:05:40.488Z,19.55
2018-12-29T04:06:06.069Z,19.55
2018-12-29T04:06:31.643Z,19.57
2018-12-29T04:06:57.219Z,19.53
2018-12-29T04:07:22.796Z,19.58
2018-12-29T04:07:48.370Z,19.55
2018-12-29T04:08:13.960Z,19.55
2018-12-29T04:08:39.564Z,19.6
2018-12-29T04:09:05.134Z,19.51
2018-12-29T04:09:30.726Z,19.55
2018-12-29T04:09:56.280Z,19.6
2018-12-29T04:10:21.855Z,19.57
2018-12-29T04:10:47.440Z,19.47
2018-12-29T04:11:13.008Z,19.57
2018-12-29T04:11:38.584Z,19.58
2018-12-29T04:12:04.161Z,19.51
2018-12-29T04:12:29.745Z,19.54
2018-12-29T04:12:55.328Z,19.55
2018-12-29T04:13:20.907Z,19.57
2018-12-29T04:13:46.486Z,19.5
2018-12-29T04:14:12.062Z,19.58
2018-12-29T04:14:37.636Z,19.55
2018-12-29T04:15:03.200Z,19.51
2018-12-29T04:15:28.769Z,19.51
2018-12-29T04:15:58.109Z,19.51
2018-12-29T04:16:19.922Z,19.53
2018-12-29T04:16:45.501Z,19.53
2018-12-29T04:17:11.075Z,19.51
2018-12-29T04:17:36.651Z,19.54
2018-12-29T04:18:02.233Z,19.57
2018-12-29T04:18:27.803Z,19.51
2018-12-29T04:18:53.389Z,19.55
2018-12-29T04:19:18.960Z,19.53
2018-12-29T04:19:44.542Z,19.58
2018-12-29T04:20:10.108Z,19.51
2018-12-29T04:20:35.678Z,19.54
2018-12-29T04:21:01.256Z,19.57
2018-12-29T04:21:26.847Z,19.53
2018-12-29T04:21:52.445Z,19.51
2018-12-29T04:22:18.041Z,19.47
2018-12-29T04:22:43.617Z,19.58
2018-12-29T04:23:09.191Z,19.51
2018-12-29T04:23:34.766Z,19.54
2018-12-29T04:24:00.352Z,19.51
2018-12-29T04:24:25.930Z,19.53
2018-12-29T04:24:51.510Z,19.54
2018-12-29T04:25:17.081Z,19.51
2018-12-29T04:25:42.666Z,19.5
2018-12-29T04:26:08.238Z,19.54
2018-12-29T04:26:33.812Z,19.54
2018-12-29T04:26:59.384Z,19.58
2018-12-29T04:27:24.966Z,19.58
2018-12-29T04:27:50.552Z,19.54
2018-12-29T04:28:16.119Z,19.5
2018-12-29T04:28:41.694Z,19.53
2018-12-29T04:29:07.270Z,19.55
2018-12-29T04:29:32.848Z,19.54
2018-12-29T04:29:58.444Z,19.51
2018-12-29T04:30:24.022Z,19.54
2018-12-29T04:30:49.586Z,19.54
2018-12-29T04:31:15.164Z,19.54
2018-12-29T04:31:40.742Z,19.54
2018-12-29T04:32:06.321Z,19.54
2018-12-29T04:32:31.903Z,19.53
2018-12-29T04:32:57.484Z,19.5
2018-12-29T04:33:23.064Z,19.53
2018-12-29T04:33:48.622Z,19.58
2018-12-29T04:34:14.188Z,19.53
2018-12-29T04:34:39.763Z,19.48
2018-12-29T04:35:05.336Z,19.53
2018-12-29T04:35:30.908Z,19.54
2018-12-29T04:35:56.486Z,19.54
2018-12-29T04:36:22.070Z,19.51
2018-12-29T04:36:47.644Z,19.53
2018-12-29T04:37:13.224Z,19.54
2018-12-29T04:37:38.802Z,19.54
2018-12-29T04:38:04.370Z,19.51
2018-12-29T04:38:29.942Z,19.61
2018-12-29T04:38:55.528Z,19.55
2018-12-29T04:39:21.104Z,19.53
2018-12-29T04:39:46.673Z,19.55
2018-12-29T04:40:12.246Z,19.6
2018-12-29T04:40:37.818Z,19.63
2018-12-29T04:41:03.404Z,19.55
2018-12-29T04:41:28.980Z,19.6
2018-12-29T04:41:54.578Z,19.63
2018-12-29T04:42:20.143Z,19.66
2018-12-29T04:42:45.724Z,19.54
2018-12-29T04:43:11.290Z,19.66
2018-12-29T04:43:36.868Z,19.6
2018-12-29T04:44:02.433Z,19.68
2018-12-29T04:44:28.002Z,19.65
2018-12-29T04:44:53.566Z,19.66
2018-12-29T04:45:19.138Z,19.61
2018-12-29T04:45:44.736Z,19.63
2018-12-29T04:46:10.298Z,19.68
2018-12-29T04:46:35.888Z,19.66
2018-12-29T04:47:01.457Z,19.63
2018-12-29T04:47:27.051Z,19.63
2018-12-29T04:47:52.613Z,19.63
2018-12-29T04:48:18.222Z,19.58
2018-12-29T04:48:43.785Z,19.63
2018-12-29T04:49:09.403Z,19.65
2018-12-29T04:49:34.944Z,19.68
2018-12-29T04:50:00.509Z,19.65
2018-12-29T04:50:26.092Z,19.66
2018-12-29T04:50:51.676Z,19.68
2018-12-29T04:51:17.244Z,19.65
2018-12-29T04:51:42.809Z,19.78
2018-12-29T04:52:08.400Z,19.68
2018-12-29T04:52:33.968Z,19.65
2018-12-29T04:52:59.546Z,19.69
2018-12-29T04:53:25.126Z,19.7
2018-12-29T04:53:50.693Z,19.73
2018-12-29T04:54:16.258Z,19.75
2018-12-29T04:54:41.843Z,19.69
2018-12-29T04:55:07.412Z,19.66
2018-12-29T04:55:33.008Z,19.75
2018-12-29T04:55:58.570Z,19.7
2018-12-29T04:56:24.144Z,19.63
2018-12-29T04:56:49.719Z,19.72
2018-12-29T04:57:15.301Z,19.65
2018-12-29T04:57:40.876Z,19.73
2018-12-29T04:58:06.442Z,19.72
2018-12-29T04:58:32.020Z,19.66
2018-12-29T04:58:57.594Z,19.72
2018-12-29T04:59:23.180Z,19.73
2018-12-29T04:59:48.760Z,19.68
2018-12-29T05:00:14.320Z,19.66
2018-12-29T05:00:39.908Z,19.68
2018-12-29T05:01:05.494Z,19.68
2018-12-29T05:01:31.075Z,19.7
2018-12-29T05:01:56.640Z,19.66
2018-12-29T05:02:22.204Z,19.66
2018-12-29T05:02:47.788Z,19.65
2018-12-29T05:03:13.360Z,19.73
2018-12-29T05:03:38.922Z,19.65
2018-12-29T05:04:04.492Z,19.7
2018-12-29T05:04:30.056Z,19.73
2018-12-29T05:04:55.628Z,19.66
2018-12-29T05:05:21.195Z,19.66
2018-12-29T05:05:46.773Z,19.68
2018-12-29T05:06:12.360Z,19.7
2018-12-29T05:06:37.929Z,19.72
2018-12-29T05:07:03.513Z,19.63
2018-12-29T05:07:29.080Z,19.68
2018-12-29T05:07:54.661Z,19.7
2018-12-29T05:08:20.232Z,19.7
2018-12-29T05:08:45.812Z,19.61
2018-12-29T05:09:11.392Z,19.69
2018-12-29T05:09:36.961Z,19.68
2018-12-29T05:10:02.545Z,19.68
2018-12-29T05:10:28.124Z,19.68
2018-12-29T05:10:53.694Z,19.72
2018-12-29T05:11:19.252Z,19.65
2018-12-29T05:11:44.822Z,19.76
2018-12-29T05:12:10.408Z,19.6
2018-12-29T05:12:35.974Z,19.66
2018-12-29T05:13:01.542Z,19.69
2018-12-29T05:13:27.114Z,19.66
2018-12-29T05:13:52.674Z,19.63
2018-12-29T05:14:18.243Z,19.65
2018-12-29T05:14:43.816Z,19.66
2018-12-29T05:15:09.402Z,19.66
2018-12-29T05:15:34.978Z,19.68
2018-12-29T05:16:00.559Z,19.65
2018-12-29T05:16:26.133Z,19.7
2018-12-29T05:16:51.716Z,19.68
2018-12-29T05:17:17.294Z,19.76
2018-12-29T05:17:42.868Z,19.69
2018-12-29T05:18:08.437Z,19.61
2018-12-29T05:18:34.026Z,19.68
2018-12-29T05:18:59.596Z,19.75
2018-12-29T05:19:25.160Z,19.76
2018-12-29T05:19:50.736Z,19.73
2018-12-29T05:20:16.300Z,19.75
2018-12-29T05:20:41.869Z,19.66
2018-12-29T05:21:07.448Z,19.68
2018-12-29T05:21:33.031Z,19.76
2018-12-29T05:21:58.598Z,19.69
2018-12-29T05:22:24.176Z,19.7
2018-12-29T05:22:49.751Z,19.65
2018-12-29T05:23:15.330Z,19.72
2018-12-29T05:23:40.910Z,19.76
2018-12-29T05:24:06.489Z,19.76
2018-12-29T05:24:32.056Z,19.65
2018-12-29T05:24:57.636Z,19.8
2018-12-29T05:25:23.224Z,19.65
2018-12-29T05:25:48.794Z,19.66
2018-12-29T05:26:14.367Z,19.79
2018-12-29T05:26:39.939Z,19.75
2018-12-29T05:27:05.528Z,19.76
2018-12-29T05:27:31.098Z,19.78
2018-12-29T05:27:56.670Z,19.66
2018-12-29T05:28:22.246Z,19.84
2018-12-29T05:28:47.828Z,19.66
2018-12-29T05:29:13.387Z,19.73
2018-12-29T05:29:38.967Z,19.7
2018-12-29T05:30:04.548Z,19.75
2018-12-29T05:30:30.127Z,19.68